createdAt,value
2022-08-03T00:01:49.835Z,1.33
2022-08-03T00:04:17.074Z,2.20
2022-08-03T00:06:43.939Z,1.63
2022-08-03T00:09:11.344Z,1.70
2022-08-03T00:11:38.171Z,3.10
2022-08-03T00:14:08.472Z,1.45
2022-08-03T00:16:35.429Z,1.67
2022-08-03T00:19:03.247Z,2.33
2022-08-03T00:21:29.945Z,1.20
2022-08-03T00:23:56.714Z,1.10
2022-08-03T00:26:24.381Z,1.15
2022-08-03T00:28:51.072Z,1.27
2022-08-03T00:31:39.898Z,1.10
2022-08-03T00:34:10.536Z,1.98
2022-08-03T00:36:39.194Z,1.95
2022-08-03T00:39:05.815Z,3.08
2022-08-03T00:41:32.328Z,5.10
2022-08-03T00:43:59.029Z,3.97
2022-08-03T00:46:25.556Z,3.80
2022-08-03T00:48:53.958Z,3.50
2022-08-03T00:51:21.825Z,5.75
2022-08-03T00:53:49.464Z,3.00
2022-08-03T00:56:17.412Z,2.75
2022-08-03T00:58:45.749Z,4.28
2022-08-03T01:01:12.789Z,6.85
2022-08-03T01:03:39.548Z,7.05
2022-08-03T01:06:16.702Z,6.20
2022-08-03T01:09:11.156Z,7.13
2022-08-03T01:12:01.069Z,10.18
2022-08-03T01:14:38.434Z,6.25
2022-08-03T01:17:25.582Z,25.15
2022-08-03T01:20:04.077Z,5.37
2022-08-03T01:22:52.422Z,10.63
2022-08-03T01:25:45.806Z,5.75
2022-08-03T01:28:15.350Z,2.72
2022-08-03T01:30:45.412Z,2.80
2022-08-03T01:33:24.341Z,2.43
2022-08-03T01:35:57.328Z,1.90
2022-08-03T01:38:27.141Z,1.98
2022-08-03T01:40:55.490Z,2.55
2022-08-03T01:44:28.092Z,1.70
2022-08-03T01:46:15.828Z,1.77
2022-08-03T01:48:44.887Z,2.03
2022-08-03T01:51:13.495Z,1.40
2022-08-03T01:53:43.743Z,2.30
2022-08-03T01:56:11.735Z,2.00
2022-08-03T01:58:40.682Z,2.10
2022-08-03T02:01:09.357Z,2.25
2022-08-03T02:04:00.181Z,2.85
2022-08-03T02:07:00.030Z,2.00
2022-08-03T02:09:21.547Z,3.05
2022-08-03T02:11:49.591Z,1.97
2022-08-03T02:14:17.304Z,4.00
2022-08-03T02:16:45.879Z,3.90
2022-08-03T02:19:13.629Z,2.50
2022-08-03T02:21:57.233Z,2.25
2022-08-03T02:24:28.842Z,2.67
2022-08-03T02:26:59.554Z,4.32
2022-08-03T02:29:39.709Z,7.10
2022-08-03T02:32:12.251Z,10.55
2022-08-03T02:34:40.793Z,9.20
2022-08-03T02:37:10.316Z,24.90
2022-08-03T02:39:39.506Z,11.52
2022-08-03T02:42:08.897Z,10.07
2022-08-03T02:44:36.998Z,10.70
2022-08-03T02:47:10.365Z,14.35
2022-08-03T02:49:50.991Z,4.87
2022-08-03T02:52:21.863Z,5.53
2022-08-03T02:54:51.292Z,4.05
2022-08-03T02:57:19.970Z,4.28
2022-08-03T02:59:47.315Z,4.30
2022-08-03T03:02:16.594Z,2.20
2022-08-03T03:04:58.840Z,2.70
2022-08-03T03:07:37.243Z,3.05
2022-08-03T03:10:21.625Z,3.08
2022-08-03T03:12:50.339Z,2.60
2022-08-03T03:15:16.897Z,4.80
2022-08-03T03:17:44.342Z,3.30
2022-08-03T03:20:12.161Z,2.85
2022-08-03T03:22:40.093Z,2.80
2022-08-03T03:25:10.388Z,3.58
2022-08-03T03:27:37.466Z,4.20
2022-08-03T03:30:05.629Z,3.85
2022-08-03T03:32:32.689Z,3.38
2022-08-03T03:35:00.482Z,4.00
2022-08-03T03:37:27.703Z,5.38
2022-08-03T03:39:55.253Z,7.20
2022-08-03T03:42:22.194Z,3.15
2022-08-03T03:44:48.957Z,3.17
2022-08-03T03:47:15.683Z,4.70
2022-08-03T03:49:44.098Z,3.70
2022-08-03T03:52:11.392Z,2.67
2022-08-03T03:54:44.344Z,2.40
2022-08-03T03:57:13.166Z,2.55
2022-08-03T03:59:43.831Z,5.13
2022-08-03T04:02:11.984Z,5.20
2022-08-03T04:04:57.700Z,3.60
2022-08-03T04:07:44.842Z,4.80
2022-08-03T04:10:38.427Z,4.40
2022-08-03T04:13:10.095Z,3.13
2022-08-03T04:15:38.557Z,3.78
2022-08-03T04:18:09.564Z,3.17
2022-08-03T04:20:39.102Z,4.10
2022-08-03T04:23:13.596Z,4.20
2022-08-03T04:25:43.585Z,3.65
2022-08-03T04:28:30.386Z,2.35
2022-08-03T04:30:59.602Z,2.20
2022-08-03T04:33:29.473Z,2.00
2022-08-03T04:36:02.903Z,2.10
2022-08-03T04:38:36.702Z,2.42
2022-08-03T04:41:04.834Z,2.15
2022-08-03T04:43:34.171Z,1.60
2022-08-03T04:46:02.660Z,2.25
2022-08-03T04:48:29.351Z,2.30
2022-08-03T04:50:56.025Z,2.10
2022-08-03T04:53:22.595Z,2.33
2022-08-03T04:55:49.916Z,1.83
2022-08-03T04:58:16.493Z,2.85
2022-08-03T05:00:43.381Z,1.83
2022-08-03T05:03:23.499Z,1.75
2022-08-03T05:05:52.661Z,2.22
2022-08-03T05:08:20.748Z,2.30
2022-08-03T05:10:55.439Z,1.95
2022-08-03T05:13:25.440Z,2.63
2022-08-03T05:15:53.188Z,2.17
2022-08-03T05:18:19.835Z,1.75
2022-08-03T05:20:46.572Z,2.03
2022-08-03T05:23:13.328Z,2.40
2022-08-03T05:25:39.853Z,3.38
2022-08-03T05:28:16.199Z,2.10
2022-08-03T05:30:42.756Z,2.05
2022-08-03T05:33:09.437Z,2.00
2022-08-03T05:35:55.962Z,2.03
2022-08-03T05:38:28.628Z,2.28
2022-08-03T05:41:22.684Z,1.92
2022-08-03T05:43:44.159Z,1.75
2022-08-03T05:46:11.989Z,1.40
2022-08-03T05:48:39.258Z,2.05
2022-08-03T05:51:11.101Z,1.67
2022-08-03T05:53:38.604Z,2.08
2022-08-03T05:56:15.349Z,1.67
2022-08-03T05:58:46.213Z,2.20
2022-08-03T06:01:13.265Z,2.25
2022-08-03T06:03:40.492Z,2.15
2022-08-03T06:06:06.961Z,2.00
2022-08-03T06:08:34.620Z,2.38
2022-08-03T06:11:01.430Z,2.97
2022-08-03T06:13:28.095Z,3.47
2022-08-03T06:15:54.623Z,3.40
2022-08-03T06:18:21.455Z,2.53
2022-08-03T06:20:49.423Z,3.00
2022-08-03T06:23:17.686Z,3.60
2022-08-03T06:25:44.845Z,3.63
2022-08-03T06:28:42.610Z,4.07
2022-08-03T06:31:02.099Z,8.80
2022-08-03T06:34:31.218Z,2.95
2022-08-03T06:36:15.802Z,2.53
2022-08-03T06:38:42.382Z,2.33
2022-08-03T06:41:08.883Z,2.72
2022-08-03T06:43:38.146Z,2.28
2022-08-03T06:46:24.169Z,1.77
2022-08-03T06:48:50.953Z,2.33
2022-08-03T06:51:17.526Z,2.10
2022-08-03T06:53:44.217Z,2.08
2022-08-03T06:56:11.364Z,2.20
2022-08-03T06:58:38.428Z,2.08
2022-08-03T07:01:05.292Z,2.03
2022-08-03T07:03:31.975Z,2.50
2022-08-03T07:05:59.825Z,1.70
2022-08-03T07:08:33.933Z,2.00
2022-08-03T07:11:01.949Z,2.65
2022-08-03T07:13:28.792Z,2.30
2022-08-03T07:15:56.772Z,2.40
2022-08-03T07:18:27.573Z,2.35
2022-08-03T07:20:57.242Z,1.67
2022-08-03T07:23:24.006Z,1.65
2022-08-03T07:25:51.030Z,2.87
2022-08-03T07:28:18.136Z,2.13
2022-08-03T07:30:44.885Z,2.15
2022-08-03T07:33:11.557Z,2.08
2022-08-03T07:35:38.269Z,2.22
2022-08-03T07:38:04.818Z,1.90
2022-08-03T07:40:31.937Z,2.40
2022-08-03T07:42:58.936Z,2.03
2022-08-03T07:45:26.751Z,2.30
2022-08-03T07:47:54.276Z,2.60
2022-08-03T07:50:22.526Z,2.43
2022-08-03T07:52:50.618Z,2.15
2022-08-03T07:55:20.721Z,2.45
2022-08-03T07:57:48.728Z,2.40
2022-08-03T08:00:18.599Z,2.53
2022-08-03T08:02:45.896Z,2.03
2022-08-03T08:05:12.630Z,2.00
2022-08-03T08:07:39.749Z,2.50
2022-08-03T08:10:08.657Z,2.42
2022-08-03T08:12:36.471Z,2.75
2022-08-03T08:15:04.637Z,1.83
2022-08-03T08:17:31.646Z,2.45
2022-08-03T08:19:58.634Z,2.00
2022-08-03T08:22:30.263Z,2.13
2022-08-03T08:24:59.461Z,2.25
2022-08-03T08:27:26.320Z,2.00
2022-08-03T08:29:55.126Z,2.00
2022-08-03T08:32:26.467Z,1.95
2022-08-03T08:34:54.697Z,2.58
2022-08-03T08:37:21.417Z,1.98
2022-08-03T08:39:48.185Z,2.03
2022-08-03T08:42:15.983Z,1.65
2022-08-03T08:44:42.889Z,1.73
2022-08-03T08:47:11.345Z,2.40
2022-08-03T08:49:40.306Z,1.90
2022-08-03T08:52:25.162Z,2.37
2022-08-03T08:54:58.374Z,2.22
2022-08-03T08:57:42.399Z,3.15
2022-08-03T09:00:14.613Z,2.50
2022-08-03T09:02:45.477Z,2.33
2022-08-03T09:05:14.324Z,2.27
2022-08-03T09:07:42.564Z,3.15
2022-08-03T09:10:13.263Z,3.15
2022-08-03T09:12:45.029Z,2.30
2022-08-03T09:15:31.318Z,2.17
2022-08-03T09:18:01.182Z,2.37
2022-08-03T09:20:29.866Z,2.65
2022-08-03T09:22:59.453Z,2.33
2022-08-03T09:25:30.164Z,2.10
2022-08-03T09:28:07.268Z,2.53
2022-08-03T09:30:35.324Z,2.23
2022-08-03T09:33:05.395Z,2.25
2022-08-03T09:35:53.130Z,3.33
2022-08-03T09:38:26.519Z,1.98
2022-08-03T09:41:01.001Z,2.60
2022-08-03T09:43:28.217Z,2.83
2022-08-03T09:46:04.553Z,2.60
2022-08-03T09:48:33.342Z,2.35
2022-08-03T09:51:13.479Z,2.35
2022-08-03T09:53:57.283Z,2.58
2022-08-03T09:56:39.096Z,2.57
2022-08-03T09:59:06.016Z,2.42
2022-08-03T10:01:35.011Z,2.35
2022-08-03T10:04:04.379Z,2.25
2022-08-03T10:06:32.924Z,2.55
2022-08-03T10:09:09.489Z,2.17
2022-08-03T10:11:41.244Z,2.13
2022-08-03T10:14:11.530Z,2.38
2022-08-03T10:16:40.381Z,2.03
2022-08-03T10:19:08.562Z,2.60
2022-08-03T10:21:46.671Z,2.07
2022-08-03T10:24:17.098Z,1.80
2022-08-03T10:26:49.751Z,1.75
2022-08-03T10:29:22.761Z,1.60
2022-08-03T10:31:57.834Z,1.85
2022-08-03T10:34:28.854Z,2.03
2022-08-03T10:37:01.463Z,2.38
2022-08-03T10:39:29.986Z,2.15
2022-08-03T10:41:59.972Z,1.50
2022-08-03T10:44:37.390Z,2.45
2022-08-03T10:47:05.154Z,1.93
2022-08-03T10:49:34.403Z,2.22
2022-08-03T10:52:13.005Z,1.65
2022-08-03T10:55:10.900Z,1.85
2022-08-03T10:57:58.135Z,2.17
2022-08-03T11:00:27.997Z,1.53
2022-08-03T11:03:14.147Z,2.10
2022-08-03T11:05:54.474Z,2.15
2022-08-03T11:08:35.069Z,1.75
2022-08-03T11:11:21.598Z,1.30
2022-08-03T11:14:04.970Z,1.70
2022-08-03T11:16:37.094Z,1.90
2022-08-03T11:19:06.972Z,1.25
2022-08-03T11:21:52.735Z,1.58
2022-08-03T11:24:39.117Z,1.70
2022-08-03T11:27:14.846Z,1.83
2022-08-03T11:30:10.318Z,1.70
2022-08-03T11:32:48.602Z,2.08
2022-08-03T11:35:15.518Z,2.10
2022-08-03T11:38:03.302Z,2.10
2022-08-03T11:40:38.980Z,1.80
2022-08-03T11:43:30.700Z,1.63
2022-08-03T11:46:03.430Z,1.95
2022-08-03T11:48:39.541Z,1.90
2022-08-03T11:51:08.767Z,1.77
2022-08-03T11:53:41.922Z,1.70
2022-08-03T11:56:12.706Z,1.73
2022-08-03T11:59:16.737Z,1.88
2022-08-03T12:01:35.535Z,2.33
2022-08-03T12:04:06.122Z,1.67
2022-08-03T12:06:55.141Z,1.47
2022-08-03T12:09:22.194Z,1.92
2022-08-03T12:11:51.636Z,2.20
2022-08-03T12:14:48.862Z,1.90
2022-08-03T12:17:14.961Z,2.78
2022-08-03T12:19:42.964Z,2.27
2022-08-03T12:22:09.627Z,2.05
2022-08-03T12:24:47.167Z,2.22
2022-08-03T12:27:26.201Z,2.05
2022-08-03T12:29:58.128Z,1.80
2022-08-03T12:32:26.430Z,1.37
2022-08-03T12:34:53.044Z,1.77
2022-08-03T12:37:22.677Z,2.08
2022-08-03T12:40:00.631Z,1.80
2022-08-03T12:42:35.438Z,1.83
2022-08-03T12:45:21.166Z,1.20
2022-08-03T12:47:55.137Z,1.60
2022-08-03T12:50:34.977Z,1.77
2022-08-03T12:53:07.917Z,1.65
2022-08-03T12:55:56.388Z,1.83
2022-08-03T12:58:34.789Z,1.60
2022-08-03T13:01:09.699Z,1.60
2022-08-03T13:03:50.196Z,1.55
2022-08-03T13:06:20.626Z,1.48
2022-08-03T13:08:48.348Z,1.75
2022-08-03T13:11:58.050Z,1.90
2022-08-03T13:14:17.487Z,1.55
2022-08-03T13:16:47.093Z,2.50
2022-08-03T13:19:15.502Z,1.63
2022-08-03T13:22:01.333Z,1.70
2022-08-03T13:24:30.526Z,1.70
2022-08-03T13:26:58.398Z,1.45
2022-08-03T13:29:24.952Z,1.63
2022-08-03T13:31:52.819Z,1.67
2022-08-03T13:34:23.555Z,2.08
2022-08-03T13:37:09.300Z,1.47
2022-08-03T13:39:57.955Z,2.05
2022-08-03T13:42:23.054Z,1.70
2022-08-03T13:44:49.762Z,1.30
2022-08-03T13:47:16.459Z,1.90
2022-08-03T13:50:00.136Z,2.00
2022-08-03T13:52:30.134Z,2.10
2022-08-03T13:54:56.765Z,1.90
2022-08-03T13:58:02.243Z,1.80
2022-08-03T14:00:10.700Z,2.00
2022-08-03T14:02:38.444Z,2.00
2022-08-03T14:05:05.469Z,1.45
2022-08-03T14:07:32.060Z,2.42
2022-08-03T14:09:58.913Z,1.75
2022-08-03T14:12:25.518Z,1.83
2022-08-03T14:14:52.036Z,1.50
2022-08-03T14:17:19.120Z,2.10
2022-08-03T14:19:53.446Z,1.70
2022-08-03T14:22:21.548Z,1.63
2022-08-03T14:24:49.210Z,1.40
2022-08-03T14:27:16.289Z,2.03
2022-08-03T14:29:42.857Z,1.45
2022-08-03T14:32:13.190Z,1.88
2022-08-03T14:34:40.841Z,1.73
2022-08-03T14:37:07.481Z,1.85
2022-08-03T14:42:20.660Z,1.83
2022-08-03T14:44:47.650Z,2.00
2022-08-03T14:47:14.464Z,1.95
2022-08-03T14:50:37.134Z,1.70
2022-08-03T14:52:28.010Z,1.63
2022-08-03T14:54:54.614Z,1.90
2022-08-03T14:57:21.796Z,2.20
2022-08-03T14:59:56.148Z,1.85
2022-08-03T15:02:24.932Z,1.73
2022-08-03T15:04:52.157Z,1.60
2022-08-03T15:07:19.233Z,1.85
2022-08-03T15:09:46.180Z,1.80
2022-08-03T15:12:12.736Z,1.55
2022-08-03T15:14:39.285Z,1.70
2022-08-03T15:17:06.540Z,1.40
2022-08-03T15:20:03.978Z,1.38
2022-08-03T15:22:25.406Z,2.00
2022-08-03T15:25:03.532Z,1.50
2022-08-03T15:27:30.230Z,1.50
2022-08-03T15:30:04.968Z,1.50
2022-08-03T15:32:34.201Z,1.33
2022-08-03T15:35:00.948Z,1.83
2022-08-03T15:37:27.932Z,1.88
2022-08-03T15:39:58.830Z,1.95
2022-08-03T15:42:33.422Z,1.50
2022-08-03T15:45:00.078Z,1.80
2022-08-03T15:47:27.909Z,1.50
2022-08-03T15:49:54.643Z,1.80
2022-08-03T15:52:21.463Z,1.75
2022-08-03T15:54:48.254Z,2.07
2022-08-03T15:57:14.772Z,1.92
2022-08-03T15:59:41.267Z,2.28
2022-08-03T16:02:07.773Z,2.00
2022-08-03T16:04:34.466Z,1.77
2022-08-03T16:07:01.216Z,1.40
2022-08-03T16:09:42.898Z,1.52
2022-08-03T16:12:15.482Z,1.48
2022-08-03T16:14:52.341Z,1.65
2022-08-03T16:17:20.280Z,1.30
2022-08-03T16:19:47.022Z,1.77
2022-08-03T16:22:14.353Z,1.42
2022-08-03T16:24:41.388Z,1.70
2022-08-03T16:27:15.586Z,1.33
2022-08-03T16:29:44.508Z,1.40
2022-08-03T16:32:11.756Z,1.53
2022-08-03T16:34:39.329Z,1.13
2022-08-03T16:37:35.438Z,1.85
2022-08-03T16:39:54.159Z,1.55
2022-08-03T16:42:20.720Z,1.42
2022-08-03T16:44:47.503Z,1.53
2022-08-03T16:47:21.752Z,1.90
2022-08-03T16:49:54.298Z,1.65
2022-08-03T16:52:23.774Z,1.80
2022-08-03T16:54:53.760Z,1.30
2022-08-03T16:57:29.978Z,1.17
2022-08-03T17:00:34.058Z,1.55
2022-08-03T17:03:04.318Z,1.70
2022-08-03T17:05:47.479Z,1.88
2022-08-03T17:08:15.427Z,1.40
2022-08-03T17:10:45.216Z,2.03
2022-08-03T17:13:22.066Z,1.23
2022-08-03T17:15:57.710Z,1.85
2022-08-03T17:18:26.672Z,1.70
2022-08-03T17:20:55.480Z,1.95
2022-08-03T17:23:47.819Z,1.60
2022-08-03T17:26:21.703Z,1.67
2022-08-03T17:28:57.438Z,1.40
2022-08-03T17:31:31.212Z,1.60
2022-08-03T17:34:01.743Z,1.88
2022-08-03T17:37:01.661Z,1.80
2022-08-03T17:39:17.133Z,1.58
2022-08-03T17:41:50.139Z,1.63
2022-08-03T17:44:31.975Z,1.70
2022-08-03T17:47:06.661Z,1.60
2022-08-03T17:49:39.850Z,1.53
2022-08-03T17:52:31.059Z,1.85
2022-08-03T17:55:54.916Z,1.60
2022-08-03T17:58:01.416Z,2.30
2022-08-03T18:00:51.543Z,1.98
2022-08-03T18:03:57.914Z,1.67
2022-08-03T18:06:28.956Z,2.03
2022-08-03T18:09:04.872Z,2.05
2022-08-03T18:11:50.742Z,1.60
2022-08-03T18:14:26.609Z,1.42
2022-08-03T18:17:00.533Z,1.57
2022-08-03T18:20:02.550Z,1.27
2022-08-03T18:22:16.480Z,1.80
2022-08-03T18:24:46.474Z,1.70
2022-08-03T18:27:16.020Z,1.75
2022-08-03T18:29:47.041Z,1.57
2022-08-03T18:35:03.352Z,1.45
2022-08-03T18:37:32.696Z,1.45
2022-08-03T18:40:21.258Z,1.58
2022-08-03T18:42:50.917Z,1.73
2022-08-03T18:45:56.284Z,1.40
2022-08-03T18:48:46.173Z,1.60
2022-08-03T18:51:28.771Z,1.70
2022-08-03T18:54:45.447Z,1.90
2022-08-03T18:57:21.829Z,1.20
2022-08-03T19:00:12.252Z,1.38
2022-08-03T19:02:50.133Z,1.90
2022-08-03T19:05:20.389Z,1.75
2022-08-03T19:07:58.270Z,1.45
2022-08-03T19:10:34.815Z,1.20
2022-08-03T19:13:11.449Z,1.60
2022-08-03T19:15:51.318Z,1.25
2022-08-03T19:18:20.609Z,1.33
2022-08-03T19:23:38.005Z,1.50
2022-08-03T19:26:07.621Z,1.50
2022-08-03T19:28:58.024Z,1.05
2022-08-03T19:31:30.716Z,1.20
2022-08-03T19:34:00.386Z,1.23
2022-08-03T19:36:32.726Z,1.13
2022-08-03T19:38:59.425Z,1.58
2022-08-03T19:41:42.349Z,1.45
2022-08-03T19:44:19.891Z,1.33
2022-08-03T19:46:53.418Z,1.13
2022-08-03T19:49:26.009Z,1.13
2022-08-03T19:52:14.800Z,1.48
2022-08-03T19:54:54.210Z,1.38
2022-08-03T19:57:34.233Z,2.05
2022-08-03T20:00:03.382Z,1.75
2022-08-03T20:02:34.248Z,1.83
2022-08-03T20:05:01.397Z,1.60
2022-08-03T20:07:34.180Z,1.33
2022-08-03T20:10:04.765Z,2.58
2022-08-03T20:12:39.072Z,2.83
2022-08-03T20:15:09.341Z,1.70
2022-08-03T20:17:56.801Z,1.73
2022-08-03T20:20:27.162Z,1.58
2022-08-03T20:22:57.823Z,2.10
2022-08-03T20:25:38.280Z,3.33
2022-08-03T20:28:14.538Z,1.80
2022-08-03T20:30:47.194Z,2.20
2022-08-03T20:33:18.331Z,2.08
2022-08-03T20:35:48.919Z,1.83
2022-08-03T20:38:17.275Z,2.47
2022-08-03T20:40:45.091Z,2.33
2022-08-03T20:43:11.781Z,1.73
2022-08-03T20:48:28.194Z,1.55
2022-08-03T20:50:56.563Z,1.77
2022-08-03T20:53:57.263Z,1.70
2022-08-03T20:56:11.442Z,1.80
2022-08-03T20:58:41.915Z,2.33
2022-08-03T21:01:08.718Z,1.80
2022-08-03T21:03:40.588Z,1.60
2022-08-03T21:06:12.068Z,1.77
2022-08-03T21:08:48.211Z,1.65
2022-08-03T21:11:19.266Z,1.38
2022-08-03T21:12:58.266Z,1.05
2022-08-03T21:13:01.994Z,1.30
2022-08-03T21:13:14.022Z,1.65
2022-08-03T21:13:51.804Z,1.60
2022-08-03T21:16:21.558Z,1.70
2022-08-03T21:18:52.194Z,1.80
2022-08-03T21:21:23.415Z,1.80
2022-08-03T21:23:52.960Z,2.70
2022-08-03T21:26:22.607Z,3.60
2022-08-03T21:28:53.857Z,4.47
2022-08-03T21:31:24.671Z,5.07
2022-08-03T21:33:55.596Z,4.45
2022-08-03T21:36:22.469Z,4.82
2022-08-03T21:38:56.589Z,4.88
2022-08-03T21:41:25.021Z,4.47
2022-08-03T21:43:51.652Z,2.40
2022-08-03T21:46:20.017Z,2.20
2022-08-03T21:48:53.483Z,2.05
2022-08-03T21:51:23.704Z,2.35
2022-08-03T21:54:03.451Z,2.00
2022-08-03T21:56:41.399Z,2.07
2022-08-03T21:59:15.805Z,2.22
2022-08-03T22:01:45.593Z,1.77
2022-08-03T22:04:50.922Z,1.77
2022-08-03T22:07:04.644Z,1.90
2022-08-03T22:09:34.228Z,1.93
2022-08-03T22:12:00.883Z,2.22
2022-08-03T22:14:27.668Z,1.90
2022-08-03T22:16:54.752Z,1.58
2022-08-03T22:19:21.699Z,2.05
2022-08-03T22:21:49.150Z,2.00
2022-08-03T22:24:19.716Z,2.75
2022-08-03T22:27:09.588Z,2.00
2022-08-03T22:29:40.238Z,1.95
2022-08-03T22:32:07.049Z,2.08
2022-08-03T22:34:34.304Z,1.97
2022-08-03T22:37:04.690Z,1.50
2022-08-03T22:39:31.655Z,1.70
2022-08-03T22:42:00.227Z,1.92
2022-08-03T22:44:27.942Z,1.88
2022-08-03T22:46:55.502Z,1.80
2022-08-03T22:49:22.493Z,2.25
2022-08-03T22:51:51.727Z,2.20
2022-08-03T22:54:18.680Z,2.20
2022-08-03T22:56:46.976Z,1.85
2022-08-03T22:59:40.082Z,1.70
2022-08-03T23:02:20.169Z,1.98
2022-08-03T23:04:52.332Z,2.13
2022-08-03T23:07:26.913Z,1.83
2022-08-03T23:09:54.621Z,2.15
2022-08-03T23:12:22.630Z,2.27
2022-08-03T23:14:55.255Z,1.92
2022-08-03T23:17:27.832Z,1.63
2022-08-03T23:19:57.796Z,1.52
2022-08-03T23:22:29.429Z,1.88
2022-08-03T23:24:59.375Z,1.77
2022-08-03T23:27:27.813Z,2.10
2022-08-03T23:29:57.613Z,2.22
2022-08-03T23:32:27.339Z,1.73
2022-08-03T23:35:18.699Z,1.98
2022-08-03T23:38:04.642Z,1.73
2022-08-03T23:40:33.565Z,2.10
2022-08-03T23:43:02.079Z,2.08
2022-08-03T23:45:31.279Z,1.90
2022-08-03T23:47:57.865Z,2.42
2022-08-03T23:50:24.589Z,2.00
2022-08-03T23:53:10.994Z,1.95
2022-08-03T23:55:47.315Z,2.28
2022-08-03T23:58:34.836Z,2.15
